createdAt,value
2017-09-03T00:03:32.000Z,46.58
2017-09-03T00:13:33.000Z,46.751
2017-09-03T00:23:32.000Z,46.563
2017-09-03T00:33:32.000Z,46.547
2017-09-03T00:43:32.000Z,46.719
2017-09-03T00:53:32.000Z,46.812
2017-09-03T01:03:32.000Z,46.853
2017-09-03T01:13:32.000Z,47.058
2017-09-03T01:23:32.000Z,47.151
2017-09-03T01:33:32.000Z,47.236
2017-09-03T01:43:32.000Z,47.375
2017-09-03T01:53:32.000Z,47.358
2017-09-03T02:03:32.000Z,47.507
2017-09-03T02:13:32.000Z,47.505
2017-09-03T02:23:32.000Z,47.546
2017-09-03T02:33:32.000Z,47.897
2017-09-03T02:43:32.000Z,47.842
2017-09-03T02:53:32.000Z,47.883
2017-09-03T03:03:33.000Z,47.978
2017-09-03T03:13:33.000Z,48.009
2017-09-03T03:23:33.000Z,48.125
2017-09-03T03:33:33.000Z,48.219
2017-09-03T03:43:33.000Z,48.271
2017-09-03T03:53:33.000Z,48.377
2017-09-03T04:03:33.000Z,48.428
2017-09-03T04:13:33.000Z,48.609
2017-09-03T04:23:33.000Z,48.639
2017-09-03T04:33:33.000Z,48.648
2017-09-03T04:43:33.000Z,48.69
2017-09-03T04:53:33.000Z,48.752
2017-09-03T05:03:33.000Z,48.816
2017-09-03T05:13:33.000Z,48.89
2017-09-03T05:23:33.000Z,48.922
2017-09-03T05:33:33.000Z,49.007
2017-09-03T05:43:33.000Z,49.051
2017-09-03T05:53:33.000Z,49.166
2017-09-03T06:03:33.000Z,49.294
2017-09-03T06:13:33.000Z,49.145
2017-09-03T06:23:33.000Z,49.144
2017-09-03T06:33:33.000Z,49.093
2017-09-03T06:43:33.000Z,49.074
2017-09-03T06:53:33.000Z,48.989
2017-09-03T07:03:33.000Z,48.814
2017-09-03T07:13:33.000Z,48.612
2017-09-03T07:23:33.000Z,48.632
2017-09-03T07:33:33.000Z,48.593
2017-09-03T07:43:33.000Z,48.383
2017-09-03T07:53:33.000Z,47.926
2017-09-03T08:03:33.000Z,47.971
2017-09-03T08:13:33.000Z,47.721
2017-09-03T08:23:33.000Z,48.515
2017-09-03T08:33:33.000Z,49.097
2017-09-03T08:43:33.000Z,49.561
2017-09-03T08:53:33.000Z,49.533
2017-09-03T09:03:33.000Z,50.144
2017-09-03T09:13:33.000Z,49.985
2017-09-03T09:23:33.000Z,49.933
2017-09-03T09:33:33.000Z,49.241
2017-09-03T09:43:33.000Z,48.841
2017-09-03T09:53:33.000Z,48.292
2017-09-03T10:03:33.000Z,48.021
2017-09-03T10:13:33.000Z,47.957
2017-09-03T10:23:33.000Z,47.819
2017-09-03T10:33:33.000Z,47.242
2017-09-03T10:43:33.000Z,48.606
2017-09-03T10:53:34.000Z,48.697
2017-09-03T11:03:34.000Z,48.767
2017-09-03T11:13:34.000Z,49.228
2017-09-03T11:33:34.000Z,48.548
2017-09-03T11:43:34.000Z,48.369
2017-09-03T11:53:34.000Z,48.168
2017-09-03T12:03:34.000Z,48.607
2017-09-03T12:13:34.000Z,48.779
2017-09-03T12:23:34.000Z,48.704
2017-09-03T12:33:34.000Z,48.514
2017-09-03T12:43:34.000Z,47.831
2017-09-03T12:53:34.000Z,45.231
2017-09-03T13:03:34.000Z,46.261
2017-09-03T13:13:34.000Z,47.111
2017-09-03T13:23:34.000Z,48.178
2017-09-03T13:33:34.000Z,48.579
2017-09-03T13:43:34.000Z,49.26
2017-09-03T13:53:34.000Z,49.151
2017-09-03T14:03:34.000Z,49.094
2017-09-03T14:13:34.000Z,49.331
2017-09-03T14:23:34.000Z,49.157
2017-09-03T14:33:34.000Z,48.953
2017-09-03T14:43:34.000Z,48.986
2017-09-03T14:53:34.000Z,48.972
2017-09-03T15:03:34.000Z,49.124
2017-09-03T15:13:34.000Z,49.083
2017-09-03T15:23:36.000Z,49.124
2017-09-03T15:33:34.000Z,49.156
2017-09-03T15:43:34.000Z,49.1
2017-09-03T15:53:34.000Z,48.168
2017-09-03T16:03:34.000Z,47.965
2017-09-03T16:13:34.000Z,47.837
2017-09-03T16:23:34.000Z,48.318
2017-09-03T16:33:34.000Z,48.285
2017-09-03T16:43:34.000Z,48.099
2017-09-03T16:53:34.000Z,50.222
2017-09-03T17:03:34.000Z,50.624
2017-09-03T17:13:34.000Z,51.717
2017-09-03T17:23:34.000Z,51.027
2017-09-03T17:33:35.000Z,50.699
2017-09-03T17:43:34.000Z,50.461
2017-09-03T17:53:34.000Z,50.253
2017-09-03T18:03:34.000Z,50.745
2017-09-03T18:13:34.000Z,50.562
2017-09-03T18:23:34.000Z,50.494
2017-09-03T18:33:34.000Z,50.863
2017-09-03T18:43:34.000Z,50.428
2017-09-03T18:53:34.000Z,50.741
2017-09-03T19:03:34.000Z,50.698
2017-09-03T19:13:35.000Z,49.723
2017-09-03T19:23:35.000Z,49.661
2017-09-03T19:33:35.000Z,49.344
2017-09-03T19:43:35.000Z,49.456
2017-09-03T19:53:35.000Z,49.36
2017-09-03T20:03:35.000Z,49.444
2017-09-03T20:13:35.000Z,49.559
2017-09-03T20:23:35.000Z,49.718
2017-09-03T20:33:35.000Z,49.749
2017-09-03T20:43:35.000Z,49.898
2017-09-03T20:53:35.000Z,50.01
2017-09-03T21:03:35.000Z,50.063
2017-09-03T21:13:35.000Z,50.211
2017-09-03T21:23:35.000Z,50.076
2017-09-03T21:33:35.000Z,50.05
2017-09-03T21:43:35.000Z,50.26
2017-09-03T21:53:35.000Z,50.192
2017-09-03T22:03:35.000Z,50.252
2017-09-03T22:13:35.000Z,50.173
2017-09-03T22:23:35.000Z,50.246
2017-09-03T22:33:35.000Z,50.243
2017-09-03T22:43:36.000Z,50.218
2017-09-03T22:53:35.000Z,50.301
2017-09-03T23:03:35.000Z,50.34
2017-09-03T23:13:35.000Z,50.381
2017-09-03T23:23:35.000Z,50.497
2017-09-03T23:33:35.000Z,50.538
2017-09-03T23:43:35.000Z,50.662
2017-09-03T23:53:35.000Z,50.769
